4OK2 weather

CLOSED Candy Lake Estate Airport
Avant, Oklahoma, United States

Public forecast

Using degrees Fahrenheit for public forecast. Weather courtesy of forecast.io.

METAR (pilot weather report)

Closest report is Bartlesville Municipal Airport, 16.3 nm (30.2 km) N. Retrieved 2019/03/21 02:53 UTC (13 minutes ago):

KBVO 210253Z AUTO 25004KT 10SM CLR 06/01 A3015 RMK AO2 SLP208 T00560006 51004

TAF (pilot weather forecast)

Forecast is more than 12 hours old.

Closest forecast is Bartlesville Municipal Airport, 16.3 nm (30.2 km) N. Retrieved 2019/03/20 00:30 UTC (1 day ago):

TAF KBVO 202328Z 2100/2124 VRB06KT P6SM SKC FM210200 VRB03KT P6SM SKC FM211500 01005KT P6SM SKC